Time;durP1;ratioP1;P1;durP2;ratioP2;P2;SDS_P1;SDS_P2;PMS_P1;PMS_P2;Temp;Humidity;BMP_temperature;BMP_pressure;BME280_temperature;BME280_humidity;BME280_pressure;Samples;Min_cycle;Max_cycle;Signal;HPM_P1;HPM_P2
2023/10/31 00:03:35;;;;;;;1.25;0.80;;;;;;;;;;8005422;29;20040;-66
2023/10/31 00:07:35;;;;;;;1.10;0.80;;;;;;;;;;8008645;29;20024;-67
2023/10/31 00:11:35;;;;;;;0.80;0.80;;;;;;;;;;8007068;29;20291;-66
2023/10/31 00:15:36;;;;;;;2.78;0.75;;;;;;;;;;8005995;29;20044;-67
2023/10/31 00:19:36;;;;;;;0.70;0.70;;;;;;;;;;8004822;29;21072;-67
2023/10/31 00:23:43;;;;;;;0.60;0.60;;;;;;;;;;8005479;29;20131;-67
2023/10/31 00:27:43;;;;;;;3.80;0.90;;;;;;;;;;8005654;29;20279;-67
2023/10/31 00:31:43;;;;;;;1.13;0.68;;;;;;;;;;8002846;29;20096;-67
2023/10/31 00:35:43;;;;;;;2.03;0.70;;;;;;;;;;8008074;29;20032;-67
2023/10/31 00:39:45;;;;;;;0.60;0.60;;;;;;;;;;8007964;29;20033;-67
2023/10/31 00:43:45;;;;;;;1.08;0.82;;;;;;;;;;8006407;29;20039;-67
2023/10/31 00:47:45;;;;;;;1.42;0.82;;;;;;;;;;8007252;29;20040;-67
2023/10/31 00:51:46;;;;;;;0.90;0.80;;;;;;;;;;8008812;29;20028;-67
2023/10/31 00:55:46;;;;;;;0.60;0.60;;;;;;;;;;8010250;29;20284;-67
2023/10/31 00:59:46;;;;;;;2.37;0.70;;;;;;;;;;8010119;29;20063;-67
2023/10/31 01:03:47;;;;;;;0.85;0.70;;;;;;;;;;8008448;29;20293;-67
2023/10/31 01:07:47;;;;;;;2.03;0.80;;;;;;;;;;8011021;29;20035;-67
2023/10/31 01:11:47;;;;;;;1.30;0.80;;;;;;;;;;8007253;29;20033;-67
2023/10/31 01:15:47;;;;;;;3.13;0.75;;;;;;;;;;8008120;29;20043;-67
2023/10/31 01:19:48;;;;;;;0.60;0.60;;;;;;;;;;8008753;29;20020;-67
2023/10/31 01:23:49;;;;;;;0.77;0.65;;;;;;;;;;8008953;29;20064;-67
2023/10/31 01:27:49;;;;;;;2.67;0.70;;;;;;;;;;8006915;29;20035;-67
2023/10/31 01:31:49;;;;;;;0.63;0.63;;;;;;;;;;8008724;28;20035;-66
2023/10/31 01:35:49;;;;;;;1.47;0.70;;;;;;;;;;8007477;29;20028;-67
2023/10/31 01:39:50;;;;;;;2.53;0.70;;;;;;;;;;8007057;29;20024;-67
2023/10/31 01:43:50;;;;;;;0.93;0.80;;;;;;;;;;8005274;29;20039;-67
2023/10/31 01:47:50;;;;;;;0.70;0.70;;;;;;;;;;8003516;29;20043;-67
2023/10/31 01:51:50;;;;;;;1.98;0.82;;;;;;;;;;8006495;29;20797;-67
2023/10/31 01:55:51;;;;;;;0.80;0.80;;;;;;;;;;8006160;29;20063;-67
2023/10/31 01:59:52;;;;;;;2.25;0.80;;;;;;;;;;8004796;29;21206;-67
2023/10/31 02:03:53;;;;;;;1.92;0.80;;;;;;;;;;8007219;29;20209;-68
2023/10/31 02:07:53;;;;;;;1.95;0.70;;;;;;;;;;8007373;29;20090;-67
2023/10/31 02:11:53;;;;;;;0.85;0.60;;;;;;;;;;8007367;29;20165;-68
2023/10/31 02:15:54;;;;;;;0.60;0.60;;;;;;;;;;8004785;29;20037;-67
2023/10/31 02:19:54;;;;;;;0.60;0.60;;;;;;;;;;8006854;29;21167;-67
2023/10/31 02:24:01;;;;;;;0.77;0.77;;;;;;;;;;8003491;29;21191;-67
2023/10/31 02:28:01;;;;;;;3.88;0.88;;;;;;;;;;8009190;29;20024;-66
2023/10/31 02:32:02;;;;;;;1.90;0.80;;;;;;;;;;8012782;29;20046;-66
2023/10/31 02:36:02;;;;;;;0.60;0.60;;;;;;;;;;8010027;29;20040;-66
2023/10/31 02:40:02;;;;;;;1.25;0.60;;;;;;;;;;8011476;29;20296;-66
2023/10/31 02:44:03;;;;;;;1.00;0.70;;;;;;;;;;8002778;29;20037;-65
2023/10/31 02:48:03;;;;;;;0.60;0.60;;;;;;;;;;8007399;28;20175;-66
2023/10/31 02:52:03;;;;;;;1.67;0.70;;;;;;;;;;8003091;29;20737;-66
2023/10/31 02:56:04;;;;;;;0.80;0.80;;;;;;;;;;8005468;29;20044;-65
2023/10/31 03:00:04;;;;;;;1.65;0.90;;;;;;;;;;8004246;29;20290;-66
2023/10/31 03:04:04;;;;;;;1.00;1.00;;;;;;;;;;8008274;29;20163;-66
2023/10/31 03:08:07;;;;;;;2.17;1.10;;;;;;;;;;8014244;29;21431;-66
2023/10/31 03:12:07;;;;;;;1.60;0.90;;;;;;;;;;8005546;29;20024;-66
2023/10/31 03:16:07;;;;;;;2.10;0.87;;;;;;;;;;8011504;29;20055;-71
2023/10/31 03:20:08;;;;;;;3.80;1.00;;;;;;;;;;8009550;29;20276;-66
2023/10/31 03:24:09;;;;;;;2.47;0.90;;;;;;;;;;8011297;29;20039;-65
2023/10/31 03:28:19;;;;;;;1.83;0.90;;;;;;;;;;8013687;29;21715;-66
2023/10/31 03:32:19;;;;;;;1.02;0.93;;;;;;;;;;8022895;29;20048;-66
2023/10/31 03:36:19;;;;;;;1.35;1.00;;;;;;;;;;8008015;29;20028;-66
2023/10/31 03:40:20;;;;;;;1.60;0.85;;;;;;;;;;8008419;29;20075;-69
2023/10/31 03:44:20;;;;;;;2.28;1.10;;;;;;;;;;8009305;29;21916;-69
2023/10/31 03:48:20;;;;;;;2.90;1.15;;;;;;;;;;8009195;29;20040;-66
2023/10/31 03:52:21;;;;;;;1.80;0.90;;;;;;;;;;8006714;29;20040;-66
2023/10/31 03:56:21;;;;;;;2.78;1.00;;;;;;;;;;8007876;29;21458;-66
2023/10/31 04:00:21;;;;;;;0.90;0.80;;;;;;;;;;8008620;29;20040;-66
2023/10/31 04:04:21;;;;;;;1.52;0.90;;;;;;;;;;8006964;29;20033;-66
2023/10/31 04:08:21;;;;;;;1.00;0.90;;;;;;;;;;8009428;29;20032;-65
2023/10/31 04:12:22;;;;;;;1.38;1.00;;;;;;;;;;8018281;29;20167;-66
2023/10/31 04:16:22;;;;;;;1.02;0.80;;;;;;;;;;8011636;28;20044;-66
2023/10/31 04:20:22;;;;;;;2.65;0.90;;;;;;;;;;8007222;29;20034;-67
2023/10/31 04:24:22;;;;;;;0.85;0.80;;;;;;;;;;8008442;29;20032;-66
2023/10/31 04:28:22;;;;;;;1.95;0.90;;;;;;;;;;8009059;29;21013;-66
2023/10/31 04:32:24;;;;;;;1.23;0.90;;;;;;;;;;8005640;29;20040;-66
2023/10/31 04:36:24;;;;;;;1.30;0.80;;;;;;;;;;8011828;29;20032;-66
2023/10/31 04:40:24;;;;;;;1.73;0.90;;;;;;;;;;8005371;29;20024;-66
2023/10/31 04:44:24;;;;;;;0.80;0.80;;;;;;;;;;8005458;29;21096;-66
2023/10/31 04:48:25;;;;;;;2.80;0.90;;;;;;;;;;8005693;29;20280;-66
2023/10/31 04:52:25;;;;;;;0.82;0.70;;;;;;;;;;8003699;29;20041;-66
2023/10/31 04:56:26;;;;;;;2.17;0.80;;;;;;;;;;8008936;29;20028;-66
2023/10/31 05:00:26;;;;;;;1.10;0.60;;;;;;;;;;8006688;29;20039;-66
2023/10/31 05:04:26;;;;;;;6.10;0.70;;;;;;;;;;8006082;29;20039;-66
2023/10/31 05:08:27;;;;;;;1.17;0.70;;;;;;;;;;8008075;29;20035;-66
2023/10/31 05:12:27;;;;;;;1.20;0.77;;;;;;;;;;8005690;29;20024;-67
2023/10/31 05:16:27;;;;;;;0.77;0.70;;;;;;;;;;8008604;29;20040;-66
2023/10/31 05:20:27;;;;;;;0.70;0.70;;;;;;;;;;8009137;29;20043;-66
2023/10/31 05:24:27;;;;;;;2.85;1.42;;;;;;;;;;8008894;29;20031;-66
2023/10/31 05:28:28;;;;;;;4.27;0.80;;;;;;;;;;8011396;29;20052;-66
2023/10/31 05:32:28;;;;;;;1.83;0.80;;;;;;;;;;8005749;29;20041;-66
2023/10/31 05:36:28;;;;;;;1.03;0.60;;;;;;;;;;8006779;29;20123;-66
2023/10/31 05:40:29;;;;;;;0.80;0.80;;;;;;;;;;8002732;29;20392;-66
2023/10/31 05:44:29;;;;;;;2.20;0.63;;;;;;;;;;8002665;29;20040;-66
2023/10/31 05:48:30;;;;;;;1.90;1.30;;;;;;;;;;8007508;29;20071;-66
2023/10/31 05:52:32;;;;;;;5.03;1.80;;;;;;;;;;8002812;29;20052;-66
2023/10/31 05:56:32;;;;;;;2.00;1.33;;;;;;;;;;8005230;29;20111;-66
2023/10/31 06:00:32;;;;;;;2.47;1.10;;;;;;;;;;7998526;29;20523;-66
2023/10/31 06:04:32;;;;;;;1.70;1.30;;;;;;;;;;8001274;29;20095;-66
2023/10/31 06:08:33;;;;;;;1.17;1.08;;;;;;;;;;8005121;29;20287;-66
2023/10/31 06:12:33;;;;;;;1.30;1.20;;;;;;;;;;8005074;29;20724;-68
2023/10/31 06:16:39;;;;;;;1.13;1.02;;;;;;;;;;8003223;29;20468;-66
2023/10/31 06:20:39;;;;;;;1.75;1.30;;;;;;;;;;8007881;29;20108;-66
2023/10/31 06:24:40;;;;;;;1.00;0.90;;;;;;;;;;8006721;29;20098;-66
2023/10/31 06:28:40;;;;;;;2.60;1.42;;;;;;;;;;8007516;29;20111;-66
2023/10/31 06:32:41;;;;;;;1.13;0.75;;;;;;;;;;8005069;29;20032;-66
2023/10/31 06:36:41;;;;;;;1.90;0.90;;;;;;;;;;8002672;29;20130;-66
2023/10/31 06:40:41;;;;;;;2.13;1.05;;;;;;;;;;8008463;29;20509;-66
2023/10/31 06:44:41;;;;;;;1.40;0.80;;;;;;;;;;8002235;29;20174;-66
2023/10/31 06:48:42;;;;;;;1.95;0.95;;;;;;;;;;8003790;29;20039;-66
2023/10/31 06:52:42;;;;;;;2.95;1.10;;;;;;;;;;8006782;29;20024;-66
2023/10/31 06:56:42;;;;;;;3.20;1.10;;;;;;;;;;8005563;29;20042;-66
2023/10/31 07:00:42;;;;;;;2.75;1.08;;;;;;;;;;8002161;29;20040;-66
2023/10/31 07:04:42;;;;;;;1.13;1.03;;;;;;;;;;8008206;29;20032;-66
2023/10/31 07:08:43;;;;;;;0.87;0.87;;;;;;;;;;8006270;29;20375;-66
2023/10/31 07:12:43;;;;;;;3.78;1.08;;;;;;;;;;8002838;29;20275;-66
2023/10/31 07:16:44;;;;;;;5.53;1.38;;;;;;;;;;7998564;29;20040;-67
2023/10/31 07:20:44;;;;;;;2.78;1.20;;;;;;;;;;8002322;29;20095;-66
2023/10/31 07:24:44;;;;;;;7.15;1.40;;;;;;;;;;8006990;29;20036;-68
2023/10/31 07:28:46;;;;;;;2.88;1.15;;;;;;;;;;8003820;29;20035;-66
2023/10/31 07:32:46;;;;;;;2.90;1.05;;;;;;;;;;8002022;29;20165;-67
2023/10/31 07:36:46;;;;;;;3.50;1.30;;;;;;;;;;8004038;29;20083;-66
2023/10/31 07:40:48;;;;;;;5.50;1.15;;;;;;;;;;8004311;29;20139;-67
2023/10/31 07:44:49;;;;;;;1.20;0.70;;;;;;;;;;8001691;29;20036;-70
2023/10/31 07:48:49;;;;;;;0.60;0.60;;;;;;;;;;8001029;28;20036;-66
2023/10/31 07:52:49;;;;;;;4.57;0.90;;;;;;;;;;8002153;29;20040;-66
2023/10/31 07:56:50;;;;;;;0.70;0.70;;;;;;;;;;8005704;29;20038;-67
2023/10/31 08:00:50;;;;;;;1.95;0.80;;;;;;;;;;8003796;29;20107;-67
2023/10/31 08:04:50;;;;;;;2.03;0.95;;;;;;;;;;8006143;29;20051;-67
2023/10/31 08:08:50;;;;;;;2.47;1.02;;;;;;;;;;8012314;29;20033;-67
2023/10/31 08:12:51;;;;;;;2.78;1.15;;;;;;;;;;8010087;29;20032;-66
2023/10/31 08:16:51;;;;;;;0.77;0.73;;;;;;;;;;8006828;29;20119;-68
2023/10/31 08:20:51;;;;;;;2.00;0.87;;;;;;;;;;8006252;29;20150;-67
2023/10/31 08:24:52;;;;;;;6.70;1.30;;;;;;;;;;8009017;29;20288;-67
2023/10/31 08:28:52;;;;;;;4.30;1.30;;;;;;;;;;8009628;29;20031;-67
2023/10/31 08:32:53;;;;;;;3.85;1.23;;;;;;;;;;8009840;29;20040;-66
2023/10/31 08:36:53;;;;;;;6.57;1.95;;;;;;;;;;8010255;29;20912;-67
2023/10/31 08:40:53;;;;;;;8.23;1.50;;;;;;;;;;8005984;29;20032;-67
2023/10/31 08:44:54;;;;;;;10.20;1.65;;;;;;;;;;8005240;29;20155;-67
2023/10/31 08:48:54;;;;;;;3.65;1.10;;;;;;;;;;8005334;28;20488;-67
2023/10/31 08:52:54;;;;;;;2.10;1.10;;;;;;;;;;8005134;29;20108;-66
2023/10/31 08:56:54;;;;;;;2.72;1.10;;;;;;;;;;8010001;29;20039;-67
2023/10/31 09:00:54;;;;;;;5.05;0.80;;;;;;;;;;8007201;29;20056;-67
2023/10/31 09:04:55;;;;;;;1.05;0.80;;;;;;;;;;8006919;29;20043;-67
2023/10/31 09:08:55;;;;;;;1.77;0.98;;;;;;;;;;8015123;29;20040;-67
2023/10/31 09:12:55;;;;;;;1.27;1.00;;;;;;;;;;8012768;29;20086;-67
2023/10/31 09:16:55;;;;;;;5.45;1.27;;;;;;;;;;8010241;29;20051;-66
2023/10/31 09:20:55;;;;;;;2.28;1.08;;;;;;;;;;8005926;29;20071;-66
2023/10/31 09:24:56;;;;;;;4.25;1.20;;;;;;;;;;8008814;29;20043;-67
2023/10/31 09:28:56;;;;;;;3.77;1.00;;;;;;;;;;8008219;29;20024;-67
2023/10/31 09:32:56;;;;;;;2.83;1.02;;;;;;;;;;8008277;29;20316;-68
2023/10/31 09:36:56;;;;;;;7.00;1.10;;;;;;;;;;8006506;29;20028;-67
2023/10/31 09:40:56;;;;;;;4.72;1.20;;;;;;;;;;8006594;29;20032;-67
2023/10/31 09:44:57;;;;;;;2.72;1.00;;;;;;;;;;8006438;29;20200;-67
2023/10/31 09:48:57;;;;;;;3.35;1.10;;;;;;;;;;8003377;29;20189;-68
2023/10/31 09:52:57;;;;;;;5.95;0.98;;;;;;;;;;8008517;29;20501;-67
2023/10/31 09:56:57;;;;;;;1.25;0.80;;;;;;;;;;8007462;29;20578;-67
2023/10/31 10:00:58;;;;;;;2.15;1.17;;;;;;;;;;8004765;29;20171;-67
2023/10/31 10:04:58;;;;;;;8.00;1.33;;;;;;;;;;8009361;29;20047;-67
2023/10/31 10:08:58;;;;;;;2.17;1.08;;;;;;;;;;8008469;29;20090;-67
2023/10/31 10:13:02;;;;;;;3.70;1.10;;;;;;;;;;8004676;29;20697;-67
2023/10/31 10:17:13;;;;;;;3.60;1.10;;;;;;;;;;8005652;29;20044;-67
2023/10/31 10:21:13;;;;;;;2.88;1.17;;;;;;;;;;8006913;29;20040;-67
2023/10/31 10:25:21;;;;;;;5.25;1.48;;;;;;;;;;8007884;29;20028;-67
2023/10/31 10:29:21;;;;;;;4.50;1.30;;;;;;;;;;8007050;29;20025;-67
2023/10/31 10:33:22;;;;;;;4.55;1.23;;;;;;;;;;8003584;29;20723;-66
2023/10/31 10:37:23;;;;;;;4.65;1.20;;;;;;;;;;8002228;29;20682;-67
2023/10/31 10:41:25;;;;;;;3.85;1.20;;;;;;;;;;8005374;29;20025;-67
2023/10/31 10:45:25;;;;;;;2.85;1.25;;;;;;;;;;8001509;29;20052;-67
2023/10/31 10:49:26;;;;;;;7.05;1.33;;;;;;;;;;8003437;29;20107;-67
2023/10/31 10:53:29;;;;;;;3.92;1.20;;;;;;;;;;8003539;29;20026;-67
2023/10/31 10:57:36;;;;;;;7.07;1.20;;;;;;;;;;8001476;29;20100;-68
2023/10/31 11:01:36;;;;;;;3.80;1.15;;;;;;;;;;8005580;29;20049;-67
2023/10/31 11:05:37;;;;;;;7.50;1.60;;;;;;;;;;8005949;29;20044;-67
2023/10/31 11:09:38;;;;;;;5.47;1.60;;;;;;;;;;8004829;29;20079;-66
2023/10/31 11:13:38;;;;;;;6.03;1.40;;;;;;;;;;8004106;29;20069;-68
2023/10/31 11:17:40;;;;;;;4.25;0.93;;;;;;;;;;8002029;29;20040;-67
2023/10/31 11:21:58;;;;;;;5.25;1.10;;;;;;;;;;8001960;29;20212;-67
2023/10/31 11:25:58;;;;;;;2.55;0.82;;;;;;;;;;8006433;29;20143;-67
2023/10/31 11:29:59;;;;;;;4.72;1.20;;;;;;;;;;8006733;29;20131;-67
2023/10/31 11:34:02;;;;;;;4.57;1.33;;;;;;;;;;8007682;29;20048;-67
2023/10/31 11:38:03;;;;;;;5.32;1.20;;;;;;;;;;8011695;29;20063;-67
2023/10/31 11:42:16;;;;;;;2.25;1.10;;;;;;;;;;8004761;29;20035;-67
2023/10/31 11:46:23;;;;;;;3.92;1.20;;;;;;;;;;8010926;29;21310;-67
2023/10/31 11:50:24;;;;;;;5.15;1.30;;;;;;;;;;8004333;29;20036;-66
2023/10/31 11:54:24;;;;;;;3.08;1.40;;;;;;;;;;8010054;29;20024;-67
2023/10/31 11:58:30;;;;;;;3.58;1.50;;;;;;;;;;8006915;29;20797;-67
2023/10/31 12:02:30;;;;;;;4.22;1.50;;;;;;;;;;8010129;29;20043;-67
2023/10/31 12:06:30;;;;;;;3.40;1.30;;;;;;;;;;8011522;29;20028;-67
2023/10/31 12:10:31;;;;;;;3.05;1.30;;;;;;;;;;8006862;29;20028;-67
2023/10/31 12:14:31;;;;;;;2.88;1.30;;;;;;;;;;8014462;29;20036;-67
2023/10/31 12:18:32;;;;;;;5.53;1.52;;;;;;;;;;8006640;29;20048;-66
2023/10/31 12:22:33;;;;;;;5.90;1.15;;;;;;;;;;8009780;29;20162;-65
2023/10/31 12:26:34;;;;;;;3.22;1.13;;;;;;;;;;8006854;29;20034;-65
2023/10/31 12:30:43;;;;;;;3.17;1.55;;;;;;;;;;8004257;29;20123;-68
2023/10/31 12:34:44;;;;;;;2.67;1.20;;;;;;;;;;8005621;29;21149;-66
2023/10/31 12:38:46;;;;;;;2.70;1.10;;;;;;;;;;8004246;29;20040;-67
2023/10/31 12:42:47;;;;;;;2.28;1.05;;;;;;;;;;8008719;29;20028;-66
2023/10/31 12:46:48;;;;;;;1.58;1.10;;;;;;;;;;8008978;29;20064;-66
2023/10/31 12:50:48;;;;;;;4.43;1.08;;;;;;;;;;8002976;29;20107;-67
2023/10/31 12:54:48;;;;;;;4.97;1.10;;;;;;;;;;8009355;29;20032;-68
2023/10/31 12:58:48;;;;;;;4.13;0.90;;;;;;;;;;8003172;29;20292;-69
2023/10/31 13:02:49;;;;;;;1.73;0.75;;;;;;;;;;8010398;29;20048;-67
2023/10/31 13:06:59;;;;;;;3.03;0.82;;;;;;;;;;8011366;29;20150;-67
2023/10/31 13:11:00;;;;;;;4.00;1.27;;;;;;;;;;8006699;29;20040;-67
2023/10/31 13:15:01;;;;;;;3.97;1.08;;;;;;;;;;8012147;29;20139;-68
2023/10/31 13:19:01;;;;;;;4.35;1.23;;;;;;;;;;8009150;29;20055;-66
2023/10/31 13:23:02;;;;;;;3.72;1.20;;;;;;;;;;8006217;29;20047;-67
2023/10/31 13:27:03;;;;;;;3.55;1.15;;;;;;;;;;8004952;29;20841;-67
2023/10/31 13:31:04;;;;;;;7.05;1.20;;;;;;;;;;8006059;29;20493;-67
2023/10/31 13:35:05;;;;;;;4.68;1.45;;;;;;;;;;8008090;29;20032;-67
2023/10/31 13:39:05;;;;;;;2.78;1.00;;;;;;;;;;8007137;29;20385;-67
2023/10/31 13:43:05;;;;;;;2.08;1.10;;;;;;;;;;8001406;29;21252;-67
2023/10/31 13:47:06;;;;;;;5.50;1.25;;;;;;;;;;8003087;29;20053;-67
2023/10/31 13:51:06;;;;;;;1.70;1.10;;;;;;;;;;8005911;29;20099;-67
2023/10/31 13:55:06;;;;;;;5.90;1.20;;;;;;;;;;8003539;29;20364;-67
2023/10/31 13:59:07;;;;;;;2.47;1.27;;;;;;;;;;8005837;29;20028;-66
2023/10/31 14:03:07;;;;;;;2.50;1.05;;;;;;;;;;7992128;28;20868;-67
2023/10/31 14:07:07;;;;;;;2.23;1.10;;;;;;;;;;7982510;29;20616;-67
2023/10/31 14:11:08;;;;;;;2.72;1.05;;;;;;;;;;7982977;29;20276;-67
2023/10/31 14:15:08;;;;;;;3.28;1.00;;;;;;;;;;7982435;29;20016;-67
2023/10/31 14:19:08;;;;;;;4.60;1.30;;;;;;;;;;7980346;29;20068;-67
2023/10/31 14:23:08;;;;;;;6.18;1.20;;;;;;;;;;7982591;29;20299;-67
2023/10/31 14:27:09;;;;;;;3.42;1.00;;;;;;;;;;7977755;29;20118;-67
2023/10/31 14:31:10;;;;;;;1.23;0.90;;;;;;;;;;7982345;29;20170;-69
2023/10/31 14:35:11;;;;;;;2.28;0.80;;;;;;;;;;7989037;29;20078;-67
2023/10/31 14:39:11;;;;;;;4.90;1.15;;;;;;;;;;7985874;29;20139;-67
2023/10/31 14:43:17;;;;;;;4.53;1.10;;;;;;;;;;7978835;29;20163;-67
2023/10/31 14:47:18;;;;;;;1.50;0.85;;;;;;;;;;7979808;29;20955;-67
2023/10/31 14:51:19;;;;;;;2.40;0.80;;;;;;;;;;7972778;29;20032;-67
2023/10/31 14:55:19;;;;;;;1.95;0.80;;;;;;;;;;7982681;29;20373;-67
2023/10/31 14:59:19;;;;;;;1.17;0.90;;;;;;;;;;7988409;29;20043;-67
2023/10/31 15:03:19;;;;;;;3.92;1.20;;;;;;;;;;7987368;29;20047;-67
2023/10/31 15:07:20;;;;;;;5.50;1.40;;;;;;;;;;7985402;29;20154;-67
2023/10/31 15:11:20;;;;;;;1.50;0.98;;;;;;;;;;7988251;29;21099;-67
2023/10/31 15:15:20;;;;;;;6.23;1.07;;;;;;;;;;7984142;29;20146;-67
2023/10/31 15:19:20;;;;;;;7.70;0.90;;;;;;;;;;7987886;29;20893;-67
2023/10/31 15:23:20;;;;;;;9.73;1.65;;;;;;;;;;7982415;29;20055;-67
2023/10/31 15:27:21;;;;;;;2.15;0.90;;;;;;;;;;7986599;29;22286;-67
2023/10/31 15:31:22;;;;;;;2.73;0.77;;;;;;;;;;7984706;29;20046;-67
2023/10/31 15:35:22;;;;;;;0.98;0.70;;;;;;;;;;7985507;29;20020;-67
2023/10/31 15:39:22;;;;;;;2.50;0.82;;;;;;;;;;7984702;29;20060;-67
2023/10/31 15:43:23;;;;;;;3.00;0.87;;;;;;;;;;7983836;29;22012;-68
2023/10/31 15:47:23;;;;;;;1.60;0.70;;;;;;;;;;7989301;29;21620;-67
2023/10/31 15:51:23;;;;;;;1.75;0.70;;;;;;;;;;7977192;29;20023;-67
2023/10/31 15:55:23;;;;;;;1.77;0.90;;;;;;;;;;7986920;29;22403;-67
2023/10/31 15:59:24;;;;;;;3.93;0.90;;;;;;;;;;7988500;29;20033;-67
2023/10/31 16:03:24;;;;;;;2.85;0.80;;;;;;;;;;7985740;29;20043;-67
2023/10/31 16:07:25;;;;;;;1.57;0.70;;;;;;;;;;7986205;29;20163;-67
2023/10/31 16:11:26;;;;;;;2.85;0.60;;;;;;;;;;7985124;29;20784;-67
2023/10/31 16:15:26;;;;;;;2.70;0.80;;;;;;;;;;7984961;29;20040;-67
2023/10/31 16:19:26;;;;;;;1.03;0.60;;;;;;;;;;7984250;29;20024;-67
2023/10/31 16:23:27;;;;;;;1.30;0.70;;;;;;;;;;7983581;29;20323;-67
2023/10/31 16:27:28;;;;;;;2.50;0.70;;;;;;;;;;7980174;29;20036;-67
2023/10/31 16:31:28;;;;;;;0.60;0.60;;;;;;;;;;7984405;29;20048;-67
2023/10/31 16:35:28;;;;;;;1.77;0.63;;;;;;;;;;7986612;29;20040;-67
2023/10/31 16:39:28;;;;;;;0.50;0.50;;;;;;;;;;7989657;29;20040;-68
2023/10/31 16:43:29;;;;;;;1.08;0.80;;;;;;;;;;7986080;29;20164;-68
2023/10/31 16:47:29;;;;;;;1.08;0.60;;;;;;;;;;7981601;29;20123;-67
2023/10/31 16:51:30;;;;;;;1.98;0.90;;;;;;;;;;7980469;29;20036;-67
2023/10/31 16:55:30;;;;;;;1.92;0.80;;;;;;;;;;7981542;29;20032;-71
2023/10/31 16:59:30;;;;;;;3.17;0.80;;;;;;;;;;7987040;29;20040;-67
2023/10/31 17:03:31;;;;;;;1.45;0.70;;;;;;;;;;7983706;29;21600;-69
2023/10/31 17:07:31;;;;;;;2.50;0.93;;;;;;;;;;7983038;29;20147;-67
2023/10/31 17:11:31;;;;;;;0.98;0.82;;;;;;;;;;7979679;29;20824;-67
2023/10/31 17:15:31;;;;;;;3.23;0.80;;;;;;;;;;7984376;29;20517;-67
2023/10/31 17:19:32;;;;;;;5.07;1.17;;;;;;;;;;7982686;29;20319;-67
2023/10/31 17:23:32;;;;;;;2.00;0.77;;;;;;;;;;7985554;29;20682;-67
2023/10/31 17:27:33;;;;;;;3.40;1.20;;;;;;;;;;7985158;29;20584;-67
2023/10/31 17:31:37;;;;;;;2.35;1.00;;;;;;;;;;7982366;29;20308;-67
2023/10/31 17:35:38;;;;;;;1.98;0.90;;;;;;;;;;7983436;29;20207;-67
2023/10/31 17:39:39;;;;;;;2.30;0.90;;;;;;;;;;7984594;29;20032;-67
2023/10/31 17:43:39;;;;;;;3.03;1.08;;;;;;;;;;7985024;29;20800;-68
2023/10/31 17:47:39;;;;;;;2.47;0.90;;;;;;;;;;7982454;29;20921;-67
2023/10/31 17:51:41;;;;;;;2.63;1.13;;;;;;;;;;7980975;29;20032;-67
2023/10/31 17:55:42;;;;;;;2.20;1.05;;;;;;;;;;7978033;29;20064;-67
2023/10/31 17:59:42;;;;;;;1.50;0.98;;;;;;;;;;7982516;29;20406;-70
2023/10/31 18:03:42;;;;;;;6.50;1.20;;;;;;;;;;7978356;29;20041;-68
2023/10/31 18:07:42;;;;;;;4.97;1.10;;;;;;;;;;7982338;29;20135;-67
2023/10/31 18:11:43;;;;;;;3.65;1.00;;;;;;;;;;7979288;29;20024;-68
2023/10/31 18:15:43;;;;;;;3.53;1.10;;;;;;;;;;7979464;29;20044;-67
2023/10/31 18:19:43;;;;;;;2.55;1.20;;;;;;;;;;7975769;29;20035;-68
2023/10/31 18:23:43;;;;;;;2.30;1.05;;;;;;;;;;7980377;29;20128;-67
2023/10/31 18:27:44;;;;;;;3.63;1.15;;;;;;;;;;7980093;29;20083;-67
2023/10/31 18:31:44;;;;;;;2.58;1.10;;;;;;;;;;7973403;29;20040;-67
2023/10/31 18:35:44;;;;;;;2.93;1.20;;;;;;;;;;7978312;29;20060;-68
2023/10/31 18:39:44;;;;;;;3.78;1.23;;;;;;;;;;7975718;29;20286;-67
2023/10/31 18:43:45;;;;;;;1.83;1.10;;;;;;;;;;7979961;29;21320;-67
2023/10/31 18:47:45;;;;;;;3.65;1.10;;;;;;;;;;7977424;29;20107;-68
2023/10/31 18:51:45;;;;;;;1.70;1.10;;;;;;;;;;7975699;29;20024;-67
2023/10/31 18:55:45;;;;;;;2.07;1.17;;;;;;;;;;7986335;29;21144;-67
2023/10/31 18:59:46;;;;;;;5.55;1.25;;;;;;;;;;7976224;29;20028;-67
2023/10/31 19:03:46;;;;;;;3.78;1.20;;;;;;;;;;7981694;29;20041;-67
2023/10/31 19:07:46;;;;;;;2.45;1.20;;;;;;;;;;7984180;29;20064;-68
2023/10/31 19:11:48;;;;;;;3.25;1.33;;;;;;;;;;7984779;29;20028;-68
2023/10/31 19:15:48;;;;;;;1.17;1.08;;;;;;;;;;7985664;29;20037;-67
2023/10/31 19:19:48;;;;;;;1.55;1.05;;;;;;;;;;7979177;29;20052;-67
2023/10/31 19:23:48;;;;;;;3.58;1.40;;;;;;;;;;7979570;29;20039;-67
2023/10/31 19:27:49;;;;;;;2.72;1.13;;;;;;;;;;7982735;29;20925;-67
2023/10/31 19:31:49;;;;;;;1.88;1.30;;;;;;;;;;7980798;29;20159;-67
2023/10/31 19:35:49;;;;;;;6.70;1.33;;;;;;;;;;7983710;29;20043;-68
2023/10/31 19:39:49;;;;;;;5.53;1.43;;;;;;;;;;7984140;29;20386;-68
2023/10/31 19:43:50;;;;;;;1.30;1.17;;;;;;;;;;7985533;29;20028;-67
2023/10/31 19:47:50;;;;;;;1.23;1.13;;;;;;;;;;7985780;29;20036;-68
2023/10/31 19:51:50;;;;;;;1.98;1.17;;;;;;;;;;7985080;29;20030;-67
2023/10/31 19:55:50;;;;;;;2.55;1.15;;;;;;;;;;7987167;29;20042;-67
2023/10/31 19:59:51;;;;;;;4.35;1.50;;;;;;;;;;7988341;29;20043;-67
2023/10/31 20:03:51;;;;;;;2.40;1.40;;;;;;;;;;7991028;29;20167;-67
2023/10/31 20:07:53;;;;;;;5.18;1.30;;;;;;;;;;7983182;29;20276;-67
2023/10/31 20:11:55;;;;;;;5.65;1.20;;;;;;;;;;7985995;29;20036;-67
2023/10/31 20:15:56;;;;;;;3.45;1.30;;;;;;;;;;7981402;29;20036;-67
2023/10/31 20:19:56;;;;;;;5.18;1.20;;;;;;;;;;7989516;29;20055;-67
2023/10/31 20:23:56;;;;;;;2.53;1.25;;;;;;;;;;7983638;29;20067;-67
2023/10/31 20:27:57;;;;;;;3.50;1.47;;;;;;;;;;7982683;29;20032;-67
2023/10/31 20:31:57;;;;;;;2.70;1.40;;;;;;;;;;7973981;29;20299;-67
2023/10/31 20:35:57;;;;;;;3.45;1.27;;;;;;;;;;7973996;29;20039;-67
2023/10/31 20:39:57;;;;;;;2.50;1.30;;;;;;;;;;7969687;29;20036;-67
2023/10/31 20:43:58;;;;;;;3.15;1.17;;;;;;;;;;7968757;29;20032;-67
2023/10/31 20:47:58;;;;;;;2.95;1.20;;;;;;;;;;7968623;29;20044;-68
2023/10/31 20:51:58;;;;;;;4.93;1.30;;;;;;;;;;7969910;29;20029;-68
2023/10/31 20:56:01;;;;;;;3.53;1.47;;;;;;;;;;7972623;29;20041;-67
2023/10/31 21:00:02;;;;;;;2.65;1.08;;;;;;;;;;7977609;29;20272;-66
2023/10/31 21:04:03;;;;;;;4.72;1.40;;;;;;;;;;7968880;29;20060;-67
2023/10/31 21:08:03;;;;;;;5.10;1.40;;;;;;;;;;7978011;29;20025;-66
2023/10/31 21:12:04;;;;;;;5.03;1.50;;;;;;;;;;7972392;29;20063;-67
2023/10/31 21:16:05;;;;;;;2.72;1.50;;;;;;;;;;7969754;29;20186;-67
2023/10/31 21:20:05;;;;;;;5.28;1.38;;;;;;;;;;7968951;29;20032;-66
2023/10/31 21:24:07;;;;;;;9.38;1.60;;;;;;;;;;7969750;29;20036;-66
2023/10/31 21:28:08;;;;;;;4.50;1.40;;;;;;;;;;7970972;29;20102;-67
2023/10/31 21:32:08;;;;;;;2.92;1.55;;;;;;;;;;7982863;29;20044;-68
2023/10/31 21:36:09;;;;;;;3.95;1.40;;;;;;;;;;7972823;29;20039;-66
2023/10/31 21:40:09;;;;;;;3.05;1.27;;;;;;;;;;7973851;29;20061;-66
2023/10/31 21:44:09;;;;;;;4.05;1.40;;;;;;;;;;7974324;29;20037;-66
2023/10/31 21:48:10;;;;;;;4.77;1.50;;;;;;;;;;7970869;29;20041;-66
2023/10/31 21:52:10;;;;;;;3.20;1.25;;;;;;;;;;7970217;29;20035;-66
2023/10/31 21:56:10;;;;;;;2.50;1.10;;;;;;;;;;7971461;29;20544;-66
2023/10/31 22:00:11;;;;;;;4.05;1.30;;;;;;;;;;7969697;29;20064;-67
2023/10/31 22:04:11;;;;;;;5.57;1.55;;;;;;;;;;7972225;29;20024;-66
2023/10/31 22:08:11;;;;;;;4.53;1.40;;;;;;;;;;7967912;29;20036;-66
2023/10/31 22:12:12;;;;;;;3.70;1.20;;;;;;;;;;7968134;29;20031;-67
2023/10/31 22:16:12;;;;;;;5.97;1.10;;;;;;;;;;7970010;29;21176;-67
2023/10/31 22:20:12;;;;;;;5.55;1.20;;;;;;;;;;7966522;29;20542;-66
2023/10/31 22:24:12;;;;;;;5.17;1.07;;;;;;;;;;7972093;29;20899;-67
2023/10/31 22:28:13;;;;;;;5.07;1.10;;;;;;;;;;7967115;29;20849;-67
2023/10/31 22:32:13;;;;;;;7.53;1.33;;;;;;;;;;7966230;29;21201;-66
2023/10/31 22:36:13;;;;;;;3.95;1.20;;;;;;;;;;7975668;29;20151;-67
2023/10/31 22:40:13;;;;;;;5.70;1.30;;;;;;;;;;7983932;29;20607;-67
2023/10/31 22:44:14;;;;;;;4.85;1.30;;;;;;;;;;7989704;29;20150;-66
2023/10/31 22:48:14;;;;;;;4.40;1.30;;;;;;;;;;7987140;29;20044;-67
2023/10/31 22:52:15;;;;;;;4.35;1.35;;;;;;;;;;7984157;29;20040;-67
2023/10/31 22:56:15;;;;;;;7.28;1.83;;;;;;;;;;7989051;29;20159;-67
2023/10/31 23:00:20;;;;;;;7.00;1.47;;;;;;;;;;7983094;28;20036;-67
2023/10/31 23:04:21;;;;;;;4.72;1.40;;;;;;;;;;7988670;29;21747;-66
2023/10/31 23:08:21;;;;;;;4.90;1.23;;;;;;;;;;7987374;29;20646;-67
2023/10/31 23:12:21;;;;;;;6.57;1.58;;;;;;;;;;7993522;29;20308;-66
2023/10/31 23:16:21;;;;;;;3.55;1.30;;;;;;;;;;8001590;29;20084;-67
2023/10/31 23:20:21;;;;;;;4.75;1.40;;;;;;;;;;8005964;29;20024;-66
2023/10/31 23:24:22;;;;;;;3.95;1.20;;;;;;;;;;7990531;29;20040;-67
2023/10/31 23:28:22;;;;;;;4.25;1.20;;;;;;;;;;7996011;29;20116;-67
2023/10/31 23:32:23;;;;;;;5.25;1.23;;;;;;;;;;7992001;29;20040;-66
2023/10/31 23:36:23;;;;;;;4.43;1.30;;;;;;;;;;7992527;29;21535;-67
2023/10/31 23:40:23;;;;;;;3.97;1.30;;;;;;;;;;7993689;29;20039;-67
2023/10/31 23:44:23;;;;;;;5.28;1.10;;;;;;;;;;7993711;29;20278;-67
2023/10/31 23:48:24;;;;;;;3.73;1.10;;;;;;;;;;7994224;29;20041;-66
2023/10/31 23:52:24;;;;;;;3.78;1.00;;;;;;;;;;7995487;29;20048;-66
2023/10/31 23:56:24;;;;;;;6.30;1.10;;;;;;;;;;7988475;29;20070;-67
